Terminal Aerodrome Forecast
Issued by NWS

Home | Current Version | Previous Version | Text Only | Print | Product List | Glossary On
Versions: 1 2 3 4 5 6 7 8 9 10 11 12 13
677
FTUS44 KSJT 071142
TAFBBD
TAF
KBBD 071142Z 0712/0812 VRB06KT P6SM BKN004
     FM071800 20009KT P6SM BKN009
     FM072100 25005KT P6SM BKN012
     FM080300 02013G20KT 5SM BR BKN008
      AMD NOT SKED=

USA.gov is the U.S. government's official web portal to all federal, state and local government web resources and services.